Time;durP1;ratioP1;P1;durP2;ratioP2;P2;SDS_P1;SDS_P2;PMS_P1;PMS_P2;Temp;Humidity;BMP_temperature;BMP_pressure;BME280_temperature;BME280_humidity;BME280_pressure;Samples;Min_cycle;Max_cycle;Signal;HPM_P1;HPM_P2
2022/11/28 00:01:09;;;;;;;0.10;0.10;;;15.20;90.30;;;;;;4184311;28;20059;-60
2022/11/28 00:03:50;;;;;;;0.00;0.00;;;15.20;90.20;;;;;;4193357;28;20097;-60
2022/11/28 00:06:30;;;;;;;0.43;0.43;;;15.20;90.30;;;;;;4193958;28;20055;-60
2022/11/28 00:09:13;;;;;;;0.00;0.00;;;15.20;90.70;;;;;;4210118;28;20050;-60
2022/11/28 00:11:54;;;;;;;0.22;0.22;;;15.20;90.30;;;;;;4187525;28;20059;-59
2022/11/28 00:14:34;;;;;;;0.17;0.17;;;15.20;90.40;;;;;;4192959;28;20545;-58
2022/11/28 00:17:17;;;;;;;0.00;0.00;;;15.20;90.60;;;;;;4192774;28;20124;-59
2022/11/28 00:19:58;;;;;;;0.00;0.00;;;15.10;90.40;;;;;;4192944;28;20048;-59
2022/11/28 00:22:38;;;;;;;0.73;0.73;;;15.20;90.50;;;;;;4176997;28;20131;-58
2022/11/28 00:25:20;;;;;;;4.40;1.77;;;15.10;90.50;;;;;;4176545;28;20282;-58
2022/11/28 00:28:00;;;;;;;0.10;0.10;;;15.10;90.50;;;;;;4193318;28;20079;-58
2022/11/28 00:30:41;;;;;;;0.00;0.00;;;15.10;90.50;;;;;;4191854;28;20143;-58
2022/11/28 00:33:23;;;;;;;0.00;0.00;;;15.10;90.50;;;;;;4193307;28;20047;-58
2022/11/28 00:36:05;;;;;;;0.20;0.20;;;15.10;90.60;;;;;;4192746;28;20052;-59
2022/11/28 00:38:46;;;;;;;0.00;0.00;;;15.10;90.50;;;;;;4192482;28;20052;-59
2022/11/28 00:41:29;;;;;;;0.20;0.20;;;15.10;90.40;;;;;;4192565;28;20556;-59
2022/11/28 00:44:11;;;;;;;0.20;0.20;;;15.10;90.50;;;;;;4207542;28;20129;-59
2022/11/28 00:46:52;;;;;;;0.00;0.00;;;15.00;90.30;;;;;;4206386;28;20070;-59
2022/11/28 00:49:34;;;;;;;0.00;0.00;;;15.00;90.40;;;;;;4209487;28;20051;-58
2022/11/28 00:52:15;;;;;;;0.20;0.20;;;15.00;90.90;;;;;;4209586;28;20046;-59
2022/11/28 00:54:56;;;;;;;0.08;0.08;;;15.00;90.40;;;;;;4209405;28;20494;-59
2022/11/28 00:57:36;;;;;;;0.00;0.00;;;15.00;90.60;;;;;;4209413;28;20146;-59
2022/11/28 01:00:18;;;;;;;0.20;0.20;;;15.00;90.60;;;;;;4191832;28;20058;-58
2022/11/28 01:02:59;;;;;;;0.00;0.00;;;15.00;90.60;;;;;;4209126;28;20062;-59
2022/11/28 01:05:42;;;;;;;0.00;0.00;;;15.00;90.60;;;;;;4209049;28;20054;-59
2022/11/28 01:08:23;;;;;;;0.00;0.00;;;14.90;90.60;;;;;;4209500;28;20510;-59
2022/11/28 01:11:10;;;;;;;0.20;0.20;;;14.90;90.70;;;;;;4194118;28;20051;-59
2022/11/28 01:13:53;;;;;;;0.30;0.30;;;14.90;90.70;;;;;;4192470;28;20113;-58
2022/11/28 01:16:33;;;;;;;0.73;0.73;;;14.90;90.80;;;;;;4175685;28;20115;-58
2022/11/28 01:19:15;;;;;;;0.00;0.00;;;14.90;90.90;;;;;;4175717;28;20055;-60
2022/11/28 01:21:57;;;;;;;0.00;0.00;;;14.90;90.90;;;;;;4183693;28;20078;-61
2022/11/28 01:24:38;;;;;;;0.00;0.00;;;14.90;91.00;;;;;;4192271;28;20121;-60
2022/11/28 01:27:19;;;;;;;0.00;0.00;;;14.90;91.00;;;;;;4191798;28;20129;-60
2022/11/28 01:30:00;;;;;;;0.00;0.00;;;14.90;91.00;;;;;;4175387;28;20113;-60
2022/11/28 01:32:41;;;;;;;0.40;0.40;;;14.90;91.00;;;;;;4175571;28;20052;-60
2022/11/28 01:35:22;;;;;;;0.00;0.00;;;14.90;91.00;;;;;;4175676;28;20299;-60
2022/11/28 01:38:04;;;;;;;0.00;0.00;;;14.90;91.10;;;;;;4175672;28;20055;-60
2022/11/28 01:40:45;;;;;;;0.20;0.20;;;14.90;91.10;;;;;;4186996;28;20048;-60
2022/11/28 01:43:26;;;;;;;;;;;14.90;91.10;;;;;;4176942;28;20056;-60
2022/11/28 01:46:07;;;;;;;0.00;0.00;;;14.80;90.90;;;;;;4191281;28;19962;-60
2022/11/28 01:48:48;;;;;;;0.35;0.35;;;14.80;91.00;;;;;;4191838;28;20059;-59
2022/11/28 01:51:30;;;;;;;0.00;0.00;;;14.80;90.90;;;;;;4191785;28;20585;-59
2022/11/28 01:54:13;;;;;;;0.30;0.30;;;14.80;90.90;;;;;;4190680;28;20059;-59
2022/11/28 01:56:58;;;;;;;0.00;0.00;;;14.80;91.00;;;;;;4206027;28;20059;-60
2022/11/28 01:59:42;;;;;;;0.10;0.10;;;14.80;91.10;;;;;;4208354;28;20051;-60
2022/11/28 02:02:28;;;;;;;0.00;0.00;;;14.80;91.00;;;;;;4208487;28;20083;-60
2022/11/28 02:05:09;;;;;;;0.30;0.30;;;14.80;91.10;;;;;;4175029;28;20071;-60
2022/11/28 02:07:51;;;;;;;0.00;0.00;;;14.80;91.20;;;;;;4174958;28;20480;-60
2022/11/28 02:10:43;;;;;;;0.08;0.08;;;14.80;91.20;;;;;;4194346;28;20051;-60
2022/11/28 02:13:35;;;;;;;0.00;0.00;;;14.70;91.20;;;;;;4190266;28;20143;-60
2022/11/28 02:16:30;;;;;;;0.00;0.00;;;14.80;91.20;;;;;;4158463;28;20084;-60
2022/11/28 02:19:36;;;;;;;0.00;0.00;;;14.80;91.20;;;;;;4158226;28;20138;-60
2022/11/28 02:22:22;;;;;;;0.00;0.00;;;14.70;91.10;;;;;;4157860;28;20060;-62
2022/11/28 02:25:30;;;;;;;0.22;0.22;;;14.70;91.10;;;;;;4175712;28;20197;-62
2022/11/28 02:29:03;;;;;;;0.00;0.00;;;14.70;91.20;;;;;;4192208;28;20055;-61
2022/11/28 02:32:13;;;;;;;0.00;0.00;;;14.70;91.30;;;;;;4175534;28;20052;-59
2022/11/28 02:34:59;;;;;;;0.00;0.00;;;14.70;91.30;;;;;;4175038;28;20724;-61
2022/11/28 02:37:47;;;;;;;0.00;0.00;;;14.70;91.40;;;;;;4199319;28;20077;-60
2022/11/28 02:40:34;;;;;;;0.00;0.00;;;14.70;91.40;;;;;;4201595;28;20052;-59
2022/11/28 02:43:22;;;;;;;0.20;0.20;;;14.70;91.30;;;;;;4194823;28;20059;-59
2022/11/28 02:46:09;;;;;;;0.05;0.05;;;14.70;91.40;;;;;;4194701;28;20063;-59
2022/11/28 02:48:56;;;;;;;0.00;0.00;;;14.70;91.40;;;;;;4204534;28;20101;-59
2022/11/28 02:51:42;;;;;;;0.00;0.00;;;14.70;91.40;;;;;;4210376;28;20502;-59
2022/11/28 02:54:25;;;;;;;0.00;0.00;;;14.70;91.50;;;;;;4211462;28;20439;-59
2022/11/28 02:57:06;;;;;;;0.00;0.00;;;14.60;91.40;;;;;;4211281;28;20557;-59
2022/11/28 02:59:49;;;;;;;0.00;0.00;;;14.60;91.40;;;;;;4211379;28;20055;-59
2022/11/28 03:02:32;;;;;;;0.00;0.00;;;14.60;91.40;;;;;;4178595;28;20048;-59
2022/11/28 03:05:23;;;;;;;0.10;0.10;;;14.60;91.50;;;;;;4195298;28;20055;-60
2022/11/28 03:08:14;;;;;;;0.00;0.00;;;14.60;91.50;;;;;;4194304;28;20055;-60
2022/11/28 03:11:02;;;;;;;0.00;0.00;;;14.60;91.40;;;;;;4190605;28;20056;-60
2022/11/28 03:13:53;;;;;;;0.00;0.00;;;14.60;91.90;;;;;;4194297;28;20058;-60
2022/11/28 03:16:42;;;;;;;0.00;0.00;;;14.60;91.50;;;;;;4177844;28;20059;-60
2022/11/28 03:19:28;;;;;;;0.00;0.00;;;14.60;91.60;;;;;;4177811;28;20055;-59
2022/11/28 03:22:21;;;;;;;0.70;0.55;;;14.60;91.50;;;;;;4194211;28;20052;-60
2022/11/28 03:25:10;;;;;;;0.08;0.08;;;14.60;91.50;;;;;;4192994;28;20044;-59
2022/11/28 03:27:57;;;;;;;0.00;0.00;;;14.60;91.60;;;;;;4194280;28;20146;-60
2022/11/28 03:30:43;;;;;;;0.73;0.73;;;14.60;91.60;;;;;;4182744;28;20103;-60
2022/11/28 03:33:27;;;;;;;0.52;0.52;;;14.60;91.60;;;;;;4177399;28;20055;-60
2022/11/28 03:36:13;;;;;;;0.00;0.00;;;14.60;91.70;;;;;;4177462;28;20067;-60
2022/11/28 03:39:01;;;;;;;0.30;0.30;;;14.60;92.10;;;;;;4177543;28;20052;-60
2022/11/28 03:41:46;;;;;;;0.00;0.00;;;14.60;91.70;;;;;;4177248;28;20450;-60
2022/11/28 03:44:29;;;;;;;0.20;0.20;;;14.60;91.70;;;;;;4177088;28;20059;-60
2022/11/28 03:47:10;;;;;;;0.00;0.00;;;14.60;91.70;;;;;;4177179;28;20082;-59
2022/11/28 03:49:54;;;;;;;0.00;0.00;;;14.50;91.70;;;;;;4191445;28;20059;-60
2022/11/28 03:52:40;;;;;;;2.45;1.13;;;14.60;91.80;;;;;;4181911;28;20059;-59
2022/11/28 03:55:27;;;;;;;0.00;0.00;;;14.50;91.70;;;;;;4210457;28;20055;-60
2022/11/28 03:58:13;;;;;;;0.43;0.43;;;14.50;91.70;;;;;;4175621;28;20056;-61
2022/11/28 04:01:03;;;;;;;0.00;0.00;;;14.60;91.80;;;;;;4176790;28;20626;-60
2022/11/28 04:03:54;;;;;;;0.00;0.00;;;14.50;91.80;;;;;;4176827;28;20059;-60
2022/11/28 04:06:38;;;;;;;;;;;14.50;91.80;;;;;;4177202;28;20495;-59
2022/11/28 04:09:31;;;;;;;0.45;0.45;;;14.50;91.80;;;;;;4189236;28;19927;-59
2022/11/28 04:12:23;;;;;;;0.63;0.28;;;14.50;91.80;;;;;;4160255;28;20084;-59
2022/11/28 04:15:14;;;;;;;0.00;0.00;;;14.50;91.80;;;;;;4160267;28;20176;-60
2022/11/28 04:18:00;;;;;;;0.30;0.28;;;14.50;91.80;;;;;;4174125;28;20060;-60
2022/11/28 04:20:46;;;;;;;0.00;0.00;;;14.50;91.80;;;;;;4195552;28;20055;-60
2022/11/28 04:23:29;;;;;;;0.10;0.10;;;14.50;91.80;;;;;;4193293;28;20423;-59
2022/11/28 04:26:16;;;;;;;0.00;0.00;;;14.50;91.90;;;;;;4181510;28;20138;-60
2022/11/28 04:29:01;;;;;;;0.00;0.00;;;14.50;91.90;;;;;;4184538;28;20118;-60
2022/11/28 04:31:44;;;;;;;0.00;0.00;;;14.50;91.90;;;;;;4192894;28;20055;-59
2022/11/28 04:34:28;;;;;;;0.00;0.00;;;14.50;91.90;;;;;;4185639;28;20175;-59
2022/11/28 04:37:13;;;;;;;0.00;0.00;;;14.50;91.90;;;;;;4176610;28;20121;-60
2022/11/28 04:39:56;;;;;;;0.13;0.13;;;14.50;91.90;;;;;;4176081;28;20426;-60
2022/11/28 04:42:39;;;;;;;0.10;0.10;;;14.50;91.90;;;;;;4207561;28;20513;-60
2022/11/28 04:45:27;;;;;;;0.00;0.00;;;14.50;91.90;;;;;;4209674;28;20177;-59
2022/11/28 04:48:08;;;;;;;0.00;0.00;;;14.50;91.90;;;;;;4208517;28;20063;-60
2022/11/28 04:50:53;;;;;;;0.25;0.25;;;14.50;91.80;;;;;;4206598;28;20771;-60
2022/11/28 04:53:39;;;;;;;0.00;0.00;;;14.50;91.90;;;;;;4209708;28;20509;-60
2022/11/28 04:56:24;;;;;;;0.00;0.00;;;14.50;91.90;;;;;;4209860;28;20059;-60
2022/11/28 04:59:06;;;;;;;0.00;0.00;;;14.50;91.90;;;;;;4191711;28;20129;-60
2022/11/28 05:01:50;;;;;;;0.00;0.00;;;14.50;91.90;;;;;;4193692;28;20058;-59
2022/11/28 05:04:31;;;;;;;0.00;0.00;;;14.50;91.90;;;;;;4185008;28;20058;-57
2022/11/28 05:07:12;;;;;;;;;;;14.50;91.90;;;;;;4192623;28;20154;-59
2022/11/28 05:09:54;;;;;;;0.30;0.30;;;14.50;91.90;;;;;;4192192;27;19927;-58
2022/11/28 05:12:35;;;;;;;0.00;0.00;;;14.50;91.90;;;;;;4192278;28;20051;-60
2022/11/28 05:15:17;;;;;;;0.00;0.00;;;14.40;91.90;;;;;;4196426;28;20055;-60
2022/11/28 05:18:00;;;;;;;0.00;0.00;;;14.50;92.00;;;;;;4177310;28;20399;-60
2022/11/28 05:20:41;;;;;;;0.03;0.03;;;14.40;91.90;;;;;;4191968;28;20059;-60
2022/11/28 05:23:22;;;;;;;0.00;0.00;;;14.40;92.00;;;;;;4192199;28;20055;-60
2022/11/28 05:26:06;;;;;;;0.00;0.00;;;14.40;92.30;;;;;;4192222;28;20039;-60
2022/11/28 05:28:48;;;;;;;0.20;0.20;;;14.40;92.00;;;;;;4191841;28;20125;-60
2022/11/28 05:31:29;;;;;;;0.65;0.45;;;14.40;92.00;;;;;;4185808;28;20059;-60
2022/11/28 05:34:12;;;;;;;0.20;0.20;;;14.40;92.00;;;;;;4191780;28;20410;-60
2022/11/28 05:36:53;;;;;;;0.22;0.22;;;14.40;92.00;;;;;;4203318;28;20059;-60
2022/11/28 05:39:34;;;;;;;0.00;0.00;;;14.40;92.00;;;;;;4208498;28;20189;-59
2022/11/28 05:42:15;;;;;;;0.00;0.00;;;14.40;92.00;;;;;;4208797;28;20430;-59
2022/11/28 05:44:56;;;;;;;0.00;0.00;;;14.40;92.00;;;;;;4196180;28;20056;-60
2022/11/28 05:47:36;;;;;;;0.00;0.00;;;14.40;92.00;;;;;;4198361;28;20136;-59
2022/11/28 05:50:18;;;;;;;0.10;0.10;;;14.40;92.00;;;;;;4208481;28;20063;-59
2022/11/28 05:52:59;;;;;;;0.00;0.00;;;14.40;92.40;;;;;;4198079;28;20059;-60
2022/11/28 05:55:41;;;;;;;0.00;0.00;;;14.40;92.00;;;;;;4191579;28;20060;-60
2022/11/28 05:58:22;;;;;;;1.25;0.75;;;14.40;92.00;;;;;;4199238;28;20317;-62
2022/11/28 06:01:10;;;;;;;3.97;1.05;;;14.40;92.10;;;;;;4208275;28;20383;-59
2022/11/28 06:03:56;;;;;;;0.00;0.00;;;14.40;92.20;;;;;;4192131;28;20143;-60
2022/11/28 06:06:38;;;;;;;0.00;0.00;;;14.40;92.20;;;;;;4191421;28;20096;-59
2022/11/28 06:09:19;;;;;;;0.75;0.75;;;14.50;92.20;;;;;;4181851;28;20079;-60
2022/11/28 06:12:05;;;;;;;0.17;0.17;;;14.50;92.10;;;;;;4196183;28;20140;-60
2022/11/28 06:14:46;;;;;;;0.00;0.00;;;14.50;92.10;;;;;;4186965;28;20129;-60
2022/11/28 06:17:27;;;;;;;0.00;0.00;;;14.50;92.10;;;;;;4191143;28;20055;-59
2022/11/28 06:20:09;;;;;;;0.43;0.43;;;14.50;92.20;;;;;;4184221;28;20052;-60
2022/11/28 06:22:51;;;;;;;2.35;2.17;;;14.50;92.20;;;;;;4191585;28;20545;-58
2022/11/28 06:25:32;;;;;;;0.20;0.20;;;14.50;92.40;;;;;;4191674;28;20511;-58
2022/11/28 06:28:12;;;;;;;0.10;0.10;;;14.40;92.20;;;;;;4175851;28;20054;-59
2022/11/28 06:30:53;;;;;;;31.98;2.45;;;14.40;92.20;;;;;;4183566;28;20056;-58
2022/11/28 06:33:34;;;;;;;0.88;0.88;;;14.40;92.20;;;;;;4191479;28;20483;-59
2022/11/28 06:36:17;;;;;;;0.05;0.05;;;14.40;92.60;;;;;;4198920;28;20594;-59
2022/11/28 06:38:59;;;;;;;22.05;0.82;;;14.40;92.20;;;;;;4173638;28;20071;-58
2022/11/28 06:41:40;;;;;;;0.38;0.38;;;14.40;92.20;;;;;;4183387;28;20721;-58
2022/11/28 06:44:24;;;;;;;0.00;0.00;;;14.40;92.20;;;;;;4186879;28;20074;-59
2022/11/28 06:47:05;;;;;;;0.00;0.00;;;14.40;92.20;;;;;;4181658;28;20072;-57
2022/11/28 06:49:47;;;;;;;0.03;0.03;;;14.40;92.20;;;;;;4201556;28;20079;-58
2022/11/28 06:52:28;;;;;;;0.25;0.25;;;14.40;92.20;;;;;;4208421;28;20051;-58
2022/11/28 06:55:11;;;;;;;0.10;0.10;;;14.30;92.20;;;;;;4205680;28;20055;-58
2022/11/28 06:57:52;;;;;;;0.00;0.00;;;14.30;92.20;;;;;;4187607;28;20055;-58
2022/11/28 07:00:33;;;;;;;0.00;0.00;;;14.30;92.20;;;;;;4182147;28;20714;-59
2022/11/28 07:03:14;;;;;;;0.10;0.10;;;14.40;92.20;;;;;;4195231;28;20179;-59
2022/11/28 07:05:55;;;;;;;0.00;0.00;;;14.40;92.30;;;;;;4197357;28;20078;-59
2022/11/28 07:08:36;;;;;;;3.00;1.38;;;14.40;92.20;;;;;;4207624;28;20466;-59
2022/11/28 07:11:21;;;;;;;0.00;0.00;;;14.40;92.20;;;;;;4174627;28;20591;-59
2022/11/28 07:14:02;;;;;;;0.00;0.00;;;14.30;92.20;;;;;;4175304;28;20106;-59
2022/11/28 07:16:43;;;;;;;0.38;0.38;;;14.30;92.20;;;;;;4180893;28;20047;-59
2022/11/28 07:19:24;;;;;;;0.05;0.05;;;14.30;92.20;;;;;;4177409;28;20056;-59
2022/11/28 07:22:05;;;;;;;0.35;0.35;;;14.30;92.20;;;;;;4199635;28;20068;-59
2022/11/28 07:24:47;;;;;;;2.70;2.43;;;14.30;92.20;;;;;;4187200;28;20101;-59
2022/11/28 07:27:29;;;;;;;0.75;0.75;;;14.30;92.20;;;;;;4180366;28;20444;-59
2022/11/28 07:30:11;;;;;;;0.00;0.00;;;14.30;92.20;;;;;;4181088;28;20982;-59
2022/11/28 07:32:52;;;;;;;0.28;0.28;;;14.30;92.20;;;;;;4175318;28;20072;-60
2022/11/28 07:35:33;;;;;;;4.28;2.55;;;14.30;92.20;;;;;;4175590;28;20067;-60
2022/11/28 07:38:14;;;;;;;0.00;0.00;;;14.30;92.60;;;;;;4175945;28;20048;-59
2022/11/28 07:40:55;;;;;;;0.00;0.00;;;14.30;92.20;;;;;;4174414;28;20127;-59
2022/11/28 07:43:38;;;;;;;0.43;0.43;;;14.30;92.10;;;;;;4190598;28;20395;-59
2022/11/28 07:46:20;;;;;;;0.00;0.00;;;14.30;92.10;;;;;;4175036;28;20060;-60
2022/11/28 07:49:01;;;;;;;1.30;1.30;;;14.30;92.00;;;;;;4175441;28;20059;-59
2022/11/28 07:51:42;;;;;;;0.00;0.00;;;14.30;91.90;;;;;;4183335;28;20129;-59
2022/11/28 07:54:23;;;;;;;0.73;0.73;;;14.30;91.90;;;;;;4183341;28;20080;-59
2022/11/28 07:57:04;;;;;;;0.00;0.00;;;14.30;92.00;;;;;;4175556;28;20047;-58
2022/11/28 07:59:54;;;;;;;0.30;0.28;;;14.30;91.90;;;;;;4188210;28;20442;-59
2022/11/28 08:02:35;;;;;;;14.40;1.45;;;14.30;92.00;;;;;;4180791;28;20052;-57
2022/11/28 08:05:16;;;;;;;0.05;0.05;;;14.30;92.00;;;;;;4176527;28;20372;-58
2022/11/28 08:07:57;;;;;;;0.10;0.10;;;14.30;91.90;;;;;;4175007;28;20072;-60
2022/11/28 08:10:38;;;;;;;0.00;0.00;;;14.30;91.80;;;;;;4185006;28;20137;-58
2022/11/28 08:13:19;;;;;;;0.00;0.00;;;14.30;91.80;;;;;;4202200;28;20186;-59
2022/11/28 08:16:06;;;;;;;1.30;1.13;;;14.30;91.70;;;;;;4183389;28;20066;-59
2022/11/28 08:18:48;;;;;;;0.55;0.55;;;14.30;91.60;;;;;;4178307;28;20230;-59
2022/11/28 08:21:30;;;;;;;0.05;0.05;;;14.30;91.60;;;;;;4174481;28;20155;-59
2022/11/28 08:24:12;;;;;;;0.00;0.00;;;14.30;91.50;;;;;;4174586;28;20083;-59
2022/11/28 08:26:53;;;;;;;;;;;14.30;91.50;;;;;;4173817;28;20047;-59
2022/11/28 08:29:33;;;;;;;0.00;0.00;;;14.30;91.40;;;;;;4183883;28;19931;-59
2022/11/28 08:32:16;;;;;;;0.55;0.52;;;14.30;91.30;;;;;;4174563;28;20102;-58
2022/11/28 08:34:56;;;;;;;0.38;0.38;;;14.30;91.30;;;;;;4175373;28;20056;-58
2022/11/28 08:37:37;;;;;;;0.20;0.20;;;14.20;91.20;;;;;;4185722;28;20190;-58
2022/11/28 08:40:18;;;;;;;0.28;0.28;;;14.30;91.20;;;;;;4189026;28;20093;-59
2022/11/28 08:42:59;;;;;;;0.30;0.30;;;14.20;91.20;;;;;;4179602;28;20139;-59
2022/11/28 08:45:40;;;;;;;0.10;0.10;;;14.20;91.10;;;;;;4184785;28;20052;-59
2022/11/28 08:48:22;;;;;;;0.00;0.00;;;14.20;91.10;;;;;;4180287;28;20083;-60
2022/11/28 08:51:03;;;;;;;0.00;0.00;;;14.20;91.10;;;;;;4189242;28;20047;-59
2022/11/28 08:53:45;;;;;;;0.28;0.28;;;14.20;91.00;;;;;;4180674;28;20056;-59
2022/11/28 08:56:28;;;;;;;0.00;0.00;;;14.20;91.00;;;;;;4190132;28;20125;-60
2022/11/28 08:59:10;;;;;;;0.00;0.00;;;14.20;91.00;;;;;;4173413;28;20064;-59
2022/11/28 09:01:52;;;;;;;0.43;0.43;;;14.20;91.00;;;;;;4176530;28;20064;-59
2022/11/28 09:04:35;;;;;;;0.00;0.00;;;14.20;91.00;;;;;;4177162;28;20540;-60
2022/11/28 09:07:16;;;;;;;0.13;0.13;;;14.20;90.90;;;;;;4181957;28;20166;-60
2022/11/28 09:09:57;;;;;;;0.00;0.00;;;14.20;90.90;;;;;;4188046;28;20426;-60
2022/11/28 09:12:38;;;;;;;0.28;0.28;;;14.20;90.90;;;;;;4179520;28;20055;-60
2022/11/28 09:15:19;;;;;;;0.00;0.00;;;14.20;90.90;;;;;;4178926;28;20086;-59
2022/11/28 09:18:00;;;;;;;0.00;0.00;;;14.20;90.90;;;;;;4176530;28;20109;-59
2022/11/28 09:20:42;;;;;;;0.00;0.00;;;14.20;90.90;;;;;;4177320;28;20060;-59
2022/11/28 09:23:24;;;;;;;0.25;0.25;;;14.20;90.90;;;;;;4176058;28;20056;-59
2022/11/28 09:26:08;;;;;;;0.20;0.20;;;14.10;90.80;;;;;;4174979;28;20047;-59
2022/11/28 09:28:50;;;;;;;0.00;0.00;;;14.10;90.80;;;;;;4173341;28;20091;-59
2022/11/28 09:31:31;;;;;;;0.00;0.00;;;14.20;90.80;;;;;;4176794;28;20195;-59
2022/11/28 09:34:12;;;;;;;0.00;0.00;;;14.10;90.80;;;;;;4174389;28;20048;-59
2022/11/28 09:36:54;;;;;;;0.00;0.00;;;14.20;90.80;;;;;;4184557;28;20067;-59
2022/11/28 09:39:38;;;;;;;0.15;0.15;;;14.20;90.80;;;;;;4178061;28;20079;-59
2022/11/28 09:42:43;;;;;;;0.00;0.00;;;14.20;90.80;;;;;;4172664;28;20056;-59
2022/11/28 09:45:25;;;;;;;0.32;0.32;;;14.10;90.80;;;;;;4173673;28;20055;-59
2022/11/28 09:48:19;;;;;;;0.47;0.47;;;14.10;90.70;;;;;;4187588;28;20048;-59
2022/11/28 09:51:06;;;;;;;0.15;0.15;;;14.10;90.70;;;;;;4172858;28;20511;-59
2022/11/28 09:54:06;;;;;;;0.00;0.00;;;14.10;90.70;;;;;;4173765;28;20487;-59
2022/11/28 09:56:49;;;;;;;0.00;0.00;;;14.10;90.70;;;;;;4178732;28;20056;-59
2022/11/28 09:59:31;;;;;;;0.70;0.70;;;14.10;90.60;;;;;;4171806;28;20056;-58
2022/11/28 10:02:25;;;;;;;0.00;0.00;;;14.10;90.60;;;;;;4174735;28;21178;-59
2022/11/28 10:05:16;;;;;;;1.10;1.10;;;14.10;90.60;;;;;;4160464;28;20099;-59
2022/11/28 10:08:10;;;;;;;0.00;0.00;;;14.10;90.60;;;;;;4177560;27;20047;-58
2022/11/28 10:11:02;;;;;;;0.00;0.00;;;14.10;90.60;;;;;;4172502;28;20060;-59
2022/11/28 10:13:50;;;;;;;0.00;0.00;;;14.10;90.60;;;;;;4182914;27;20052;-59
2022/11/28 10:16:57;;;;;;;0.00;0.00;;;14.10;90.60;;;;;;4179108;28;20056;-60
2022/11/28 10:19:42;;;;;;;0.07;0.07;;;14.10;90.60;;;;;;4182349;28;20063;-59
2022/11/28 10:22:39;;;;;;;0.00;0.00;;;14.10;90.60;;;;;;4174052;28;20079;-59
2022/11/28 10:25:25;;;;;;;0.00;0.00;;;14.10;90.60;;;;;;4182264;27;20055;-59
2022/11/28 10:28:13;;;;;;;0.22;0.22;;;14.10;90.60;;;;;;4179771;28;20078;-59
2022/11/28 10:31:00;;;;;;;0.00;0.00;;;14.10;90.60;;;;;;4183866;28;20235;-58
2022/11/28 10:33:46;;;;;;;0.00;0.00;;;14.10;90.90;;;;;;4173179;28;20137;-59
2022/11/28 10:36:30;;;;;;;0.00;0.00;;;14.00;90.90;;;;;;4174111;27;20114;-58
2022/11/28 10:39:13;;;;;;;0.15;0.15;;;14.10;90.50;;;;;;4173930;28;20070;-58
2022/11/28 10:42:13;;;;;;;0.00;0.00;;;14.10;90.50;;;;;;4173292;28;20396;-59
2022/11/28 10:45:07;;;;;;;0.05;0.05;;;14.10;90.50;;;;;;4172318;28;20512;-59
2022/11/28 10:48:08;;;;;;;0.00;0.00;;;14.00;90.50;;;;;;4182023;28;20064;-58
2022/11/28 10:51:19;;;;;;;1.23;1.13;;;14.10;90.50;;;;;;4175880;28;20055;-59
2022/11/28 10:54:14;;;;;;;0.00;0.00;;;14.00;90.40;;;;;;4188892;28;20498;-59
2022/11/28 10:57:06;;;;;;;0.00;0.00;;;14.00;90.40;;;;;;4191468;28;20071;-59
2022/11/28 11:00:02;;;;;;;0.00;0.00;;;14.00;90.40;;;;;;4184969;28;20052;-58
2022/11/28 11:02:47;;;;;;;0.00;0.00;;;14.00;90.40;;;;;;4177907;28;20194;-59
2022/11/28 11:05:30;;;;;;;0.00;0.00;;;14.00;90.40;;;;;;4176261;28;20191;-58
2022/11/28 11:08:19;;;;;;;0.00;0.00;;;14.10;90.30;;;;;;4191502;28;20099;-59
2022/11/28 11:11:03;;;;;;;0.00;0.00;;;14.20;90.10;;;;;;4175550;28;20052;-58
2022/11/28 11:13:58;;;;;;;0.00;0.00;;;14.40;89.80;;;;;;4186994;28;20549;-58
2022/11/28 11:16:51;;;;;;;0.00;0.00;;;14.60;89.10;;;;;;4179541;27;20075;-58
2022/11/28 11:19:34;;;;;;;0.00;0.00;;;14.80;88.20;;;;;;4159981;28;20052;-59
2022/11/28 11:22:18;;;;;;;0.15;0.15;;;14.90;87.60;;;;;;4161385;28;20061;-59
2022/11/28 11:25:14;;;;;;;0.03;0.03;;;15.00;87.20;;;;;;4159656;28;20060;-59
2022/11/28 11:27:59;;;;;;;0.00;0.00;;;15.00;86.80;;;;;;4185030;28;20051;-59
2022/11/28 11:30:41;;;;;;;0.00;0.00;;;15.00;86.60;;;;;;4176094;28;20060;-60
2022/11/28 11:33:26;;;;;;;0.00;0.00;;;15.00;86.50;;;;;;4180650;28;20056;-59
2022/11/28 11:36:27;;;;;;;0.00;0.00;;;15.00;86.40;;;;;;4177156;28;20126;-59
2022/11/28 11:39:19;;;;;;;0.52;0.52;;;15.00;86.60;;;;;;4176059;28;20487;-60
2022/11/28 11:42:12;;;;;;;0.00;0.00;;;15.00;86.60;;;;;;4176067;28;20115;-58
2022/11/28 11:44:53;;;;;;;0.00;0.00;;;15.00;86.40;;;;;;4176009;28;20195;-59
2022/11/28 11:47:42;;;;;;;0.32;0.32;;;15.10;86.20;;;;;;4177622;28;20052;-59
2022/11/28 11:50:26;;;;;;;0.00;0.00;;;15.20;86.90;;;;;;4174986;28;20055;-59
2022/11/28 11:53:13;;;;;;;0.35;0.35;;;15.10;85.80;;;;;;4175186;28;20163;-59
2022/11/28 11:55:56;;;;;;;0.00;0.00;;;15.20;85.70;;;;;;4175229;28;20196;-60
2022/11/28 11:58:43;;;;;;;0.00;0.00;;;15.20;85.80;;;;;;4180761;28;20072;-59
2022/11/28 12:01:26;;;;;;;0.00;0.00;;;15.20;85.90;;;;;;4173713;28;20408;-59
2022/11/28 12:04:13;;;;;;;0.00;0.00;;;15.20;85.80;;;;;;4175141;28;20059;-60
2022/11/28 12:07:23;;;;;;;0.40;0.40;;;15.30;85.40;;;;;;4181363;28;20052;-59
2022/11/28 12:10:09;;;;;;;0.00;0.00;;;15.50;84.80;;;;;;4177318;28;20136;-59
2022/11/28 12:12:50;;;;;;;0.40;0.40;;;15.60;84.40;;;;;;4176840;28;20052;-60
2022/11/28 12:15:41;;;;;;;0.47;0.47;;;15.70;84.00;;;;;;4177111;28;20126;-59
2022/11/28 12:18:30;;;;;;;0.00;0.00;;;15.70;83.50;;;;;;4177686;28;20055;-59
2022/11/28 12:21:14;;;;;;;0.20;0.20;;;15.80;83.20;;;;;;4179590;27;20060;-60
2022/11/28 12:24:16;;;;;;;1.50;1.40;;;15.90;82.90;;;;;;4175354;28;20052;-55
2022/11/28 12:27:06;;;;;;;0.00;0.00;;;15.90;82.90;;;;;;4159237;28;20059;-57
2022/11/28 12:29:58;;;;;;;0.00;0.00;;;15.80;82.70;;;;;;4158238;28;20091;-56
2022/11/28 12:32:49;;;;;;;0.13;0.13;;;15.80;82.90;;;;;;4167049;28;20940;-58
2022/11/28 12:35:38;;;;;;;0.00;0.00;;;15.70;83.10;;;;;;4159472;28;20408;-58
2022/11/28 12:38:35;;;;;;;0.00;0.00;;;15.70;83.40;;;;;;4158728;28;20111;-59
2022/11/28 12:41:33;;;;;;;0.00;0.00;;;15.60;83.60;;;;;;4157217;28;20056;-60
2022/11/28 12:44:25;;;;;;;0.10;0.10;;;15.50;84.00;;;;;;4159402;28;20187;-60
2022/11/28 12:47:17;;;;;;;0.00;0.00;;;15.50;84.30;;;;;;4160596;28;20134;-59
2022/11/28 12:50:06;;;;;;;0.10;0.10;;;15.40;84.60;;;;;;4163484;28;20599;-58
2022/11/28 12:52:59;;;;;;;0.00;0.00;;;15.40;84.90;;;;;;4160803;28;20095;-57
2022/11/28 12:55:48;;;;;;;0.00;0.00;;;15.30;85.20;;;;;;4166043;28;20064;-59
2022/11/28 12:58:36;;;;;;;0.00;0.00;;;15.30;85.50;;;;;;4164210;28;20056;-60
2022/11/28 13:01:34;;;;;;;0.00;0.00;;;15.20;85.70;;;;;;4173869;28;20048;-58
2022/11/28 13:04:30;;;;;;;0.00;0.00;;;15.20;85.90;;;;;;4174835;28;20202;-60
2022/11/28 13:07:19;;;;;;;0.00;0.00;;;15.20;87.00;;;;;;4175929;28;20075;-58
2022/11/28 13:10:08;;;;;;;0.00;0.00;;;15.10;86.20;;;;;;4182617;28;20059;-60
2022/11/28 13:12:57;;;;;;;0.00;0.00;;;15.10;86.50;;;;;;4184775;28;20145;-59
2022/11/28 13:15:50;;;;;;;0.45;0.43;;;15.00;86.60;;;;;;4189443;28;20056;-60
2022/11/28 13:18:52;;;;;;;0.00;0.00;;;15.00;86.80;;;;;;4175463;28;20158;-59
2022/11/28 13:21:39;;;;;;;0.00;0.00;;;14.90;86.80;;;;;;4175499;28;20404;-59
2022/11/28 13:24:27;;;;;;;0.00;0.00;;;14.90;87.10;;;;;;4173761;28;20060;-60
2022/11/28 13:27:20;;;;;;;0.00;0.00;;;14.90;87.20;;;;;;4179329;28;20052;-59
2022/11/28 13:30:13;;;;;;;0.00;0.00;;;14.90;87.40;;;;;;4173802;28;20056;-59
2022/11/28 13:33:02;;;;;;;0.00;0.00;;;14.80;87.60;;;;;;4175448;28;20138;-60
2022/11/28 13:35:45;;;;;;;0.00;0.00;;;14.80;87.80;;;;;;4176278;28;20067;-61
2022/11/28 13:38:31;;;;;;;0.00;0.00;;;14.80;88.00;;;;;;4175020;28;20052;-60
2022/11/28 13:41:22;;;;;;;0.52;0.52;;;14.80;88.10;;;;;;4173872;28;20136;-60
2022/11/28 13:44:31;;;;;;;0.47;0.47;;;14.80;88.00;;;;;;4183382;28;20404;-59
2022/11/28 13:47:28;;;;;;;0.00;0.00;;;14.90;87.90;;;;;;4183505;28;20055;-59
2022/11/28 13:50:36;;;;;;;0.47;0.47;;;15.00;87.40;;;;;;4172550;28;20065;-59
2022/11/28 13:53:25;;;;;;;0.00;0.00;;;15.10;86.70;;;;;;4172235;28;20381;-59
2022/11/28 13:56:25;;;;;;;0.00;0.00;;;15.20;86.30;;;;;;4178745;27;20949;-59
2022/11/28 13:59:17;;;;;;;0.00;0.00;;;15.30;85.90;;;;;;4184848;28;20098;-59
2022/11/28 14:02:01;;;;;;;0.10;0.10;;;15.30;85.60;;;;;;4173398;28;20063;-59
2022/11/28 14:04:44;;;;;;;0.10;0.10;;;15.30;85.40;;;;;;4180895;28;20052;-60
2022/11/28 14:07:30;;;;;;;0.30;0.30;;;15.40;85.50;;;;;;4174759;28;20395;-59
2022/11/28 14:10:35;;;;;;;0.30;0.30;;;15.30;85.40;;;;;;4177319;27;20460;-60
2022/11/28 14:13:43;;;;;;;0.32;0.22;;;15.30;85.50;;;;;;4182870;28;20081;-60
2022/11/28 14:16:41;;;;;;;0.00;0.00;;;15.30;85.70;;;;;;4159719;28;20075;-60
2022/11/28 14:19:42;;;;;;;0.00;0.00;;;15.20;86.00;;;;;;4181064;28;20063;-59
2022/11/28 14:22:39;;;;;;;1.10;1.10;;;15.30;86.00;;;;;;4178358;28;20059;-60
2022/11/28 14:25:24;;;;;;;0.05;0.05;;;15.50;85.30;;;;;;4181431;28;20137;-58